Arapoema, Brazil
Current Conditions -  °F | °C
As of 6:30 PM on Friday 19 Dec 2014 (Local Time) from SBCJ Reporting Station
Haze Haze  
Wind Chill: 72°   Ceiling: 300
Heat Index: 72°   Visibility: 1.8mi
Dew Point: 70°   Wind: 0mph
Humidity: 94%   Direction: NA
Pressure: 29.88"   Gusts: NA
Location:  7.66°S, 49.06°W
Report Text: SBCJ 192130Z 00000KT 3000 BR BKN003 22/21 Q1012
Loading
Personal Weather Stations






























Interactive Weather Map New forecast layout! Learn more

10-Day Weather Forecast

Advertisements
Track Severe Weather on mobile